createdAt,value
2019-02-19T00:01:02.487Z,-1.30
2019-02-19T00:03:31.345Z,-1.30
2019-02-19T00:06:00.171Z,-1.30
2019-02-19T00:08:29.043Z,-1.30
2019-02-19T00:10:57.921Z,-1.30
2019-02-19T00:13:26.975Z,-1.30
2019-02-19T00:15:56.151Z,-1.30
2019-02-19T00:18:24.936Z,-1.30
2019-02-19T00:20:53.739Z,-1.30
2019-02-19T00:23:22.623Z,-1.30
2019-02-19T00:25:51.393Z,-1.40
2019-02-19T00:28:20.577Z,-1.40
2019-02-19T00:30:49.424Z,-1.40
2019-02-19T00:33:18.222Z,-1.40
2019-02-19T00:35:47.577Z,-1.30
2019-02-19T00:38:16.391Z,-1.40
2019-02-19T00:40:45.172Z,-1.40
2019-02-19T00:43:13.974Z,-1.40
2019-02-19T00:45:42.758Z,-1.40
2019-02-19T00:48:11.560Z,-1.50
2019-02-19T00:50:40.365Z,-1.50
2019-02-19T00:53:09.373Z,-1.50
2019-02-19T00:55:38.155Z,-1.50
2019-02-19T00:58:07.442Z,-1.40
2019-02-19T01:00:36.244Z,-1.40
2019-02-19T01:03:05.773Z,-1.30
2019-02-19T01:05:34.919Z,-1.30
2019-02-19T01:08:03.777Z,-1.20
2019-02-19T01:10:32.905Z,-1.30
2019-02-19T01:13:02.364Z,-1.20
2019-02-19T01:15:31.231Z,-1.20
2019-02-19T01:18:00.025Z,-1.20
2019-02-19T01:20:29.757Z,-1.30
2019-02-19T01:22:58.852Z,-1.30
2019-02-19T01:25:28.143Z,-1.40
2019-02-19T01:27:57.339Z,-1.50
2019-02-19T01:30:26.213Z,-1.60
2019-02-19T01:32:55.008Z,-1.70
2019-02-19T01:35:23.885Z,-1.70
2019-02-19T01:37:52.660Z,-1.80
2019-02-19T01:40:21.477Z,-1.90
2019-02-19T01:42:50.478Z,-1.90
2019-02-19T01:45:19.333Z,-2.00
2019-02-19T01:47:48.157Z,-2.00
2019-02-19T01:50:17.676Z,-2.00
2019-02-19T01:52:46.704Z,-2.00
2019-02-19T01:55:15.505Z,-2.10
2019-02-19T01:57:44.425Z,-2.10
2019-02-19T02:00:13.939Z,-2.10
2019-02-19T02:02:43.320Z,-2.10
2019-02-19T02:05:12.282Z,-2.10
2019-02-19T02:07:41.372Z,-2.10
2019-02-19T02:10:10.233Z,-2.20
2019-02-19T02:12:39.357Z,-2.10
2019-02-19T02:15:08.853Z,-2.20
2019-02-19T02:17:37.949Z,-2.20
2019-02-19T02:20:07.070Z,-2.20
2019-02-19T02:22:35.849Z,-2.20
2019-02-19T02:25:04.788Z,-2.20
2019-02-19T02:27:33.580Z,-2.10
2019-02-19T02:30:02.386Z,-2.20
2019-02-19T02:32:31.174Z,-2.20
2019-02-19T02:35:00.277Z,-2.20
2019-02-19T02:37:29.073Z,-2.20
2019-02-19T02:39:57.946Z,-2.20
2019-02-19T02:42:26.738Z,-2.20
2019-02-19T02:44:55.768Z,-2.20
2019-02-19T02:47:24.629Z,-2.30
2019-02-19T02:49:53.416Z,-2.30
2019-02-19T02:52:22.202Z,-2.30
2019-02-19T02:54:51.366Z,-2.30
2019-02-19T02:57:20.244Z,-2.40
2019-02-19T02:59:49.045Z,-2.40
2019-02-19T03:02:18.089Z,-2.40
2019-02-19T03:04:46.885Z,-2.40
2019-02-19T03:07:32.578Z,-2.40
2019-02-19T03:10:01.426Z,-2.40
2019-02-19T03:12:30.449Z,-2.40
2019-02-19T03:14:59.569Z,-2.40
2019-02-19T03:17:28.395Z,-2.40
2019-02-19T03:19:57.165Z,-2.40
2019-02-19T03:22:26.370Z,-2.30
2019-02-19T03:24:55.136Z,-2.30
2019-02-19T03:27:24.087Z,-2.40
2019-02-19T03:29:52.878Z,-2.30
2019-02-19T03:32:21.674Z,-2.30
2019-02-19T03:34:50.515Z,-2.30
2019-02-19T03:37:19.555Z,-2.30
2019-02-19T03:39:48.668Z,-2.30
2019-02-19T03:42:17.952Z,-2.30
2019-02-19T03:44:46.809Z,-2.30
2019-02-19T03:47:15.852Z,-2.30
2019-02-19T03:49:44.636Z,-2.30
2019-02-19T03:52:13.983Z,-2.30
2019-02-19T03:54:42.841Z,-2.30
2019-02-19T03:57:11.617Z,-2.30
2019-02-19T03:59:40.908Z,-2.30
2019-02-19T04:02:09.889Z,-2.30
2019-02-19T04:04:39.097Z,-2.30
2019-02-19T04:07:07.967Z,-2.30
2019-02-19T04:09:37.266Z,-2.30
2019-02-19T04:12:06.121Z,-2.30
2019-02-19T04:14:34.993Z,-2.30
2019-02-19T04:17:03.856Z,-2.30
2019-02-19T04:19:32.707Z,-2.30
2019-02-19T04:22:01.496Z,-2.30
2019-02-19T04:24:30.261Z,-2.30
2019-02-19T04:26:59.333Z,-2.30
2019-02-19T04:29:28.109Z,-2.20
2019-02-19T04:31:57.132Z,-2.20
2019-02-19T04:34:26.164Z,-2.20
2019-02-19T04:36:55.189Z,-2.30
2019-02-19T04:39:24.171Z,-2.30
2019-02-19T04:41:53.265Z,-2.30
2019-02-19T04:44:22.305Z,-2.30
2019-02-19T04:46:51.103Z,-2.30
2019-02-19T04:49:19.905Z,-2.40
2019-02-19T04:51:48.744Z,-2.40
2019-02-19T04:54:17.858Z,-2.40
2019-02-19T04:56:46.750Z,-2.40
2019-02-19T04:59:15.560Z,-2.40
2019-02-19T05:01:44.424Z,-2.50
2019-02-19T05:04:13.314Z,-2.50
2019-02-19T05:06:42.122Z,-2.40
2019-02-19T05:09:10.944Z,-2.40
2019-02-19T05:11:39.749Z,-2.40
2019-02-19T05:14:08.590Z,-2.40
2019-02-19T05:16:40.769Z,-2.50
2019-02-19T05:19:08.683Z,-2.50
2019-02-19T05:21:37.563Z,-2.50
2019-02-19T05:24:06.409Z,-2.50
2019-02-19T05:26:35.194Z,-2.50
2019-02-19T05:29:04.408Z,-2.50
2019-02-19T05:31:33.537Z,-2.50
2019-02-19T05:34:02.335Z,-2.50
2019-02-19T05:36:31.125Z,-2.50
2019-02-19T05:39:00.577Z,-2.50
2019-02-19T05:41:29.434Z,-2.50
2019-02-19T05:43:58.341Z,-2.50
2019-02-19T05:46:27.153Z,-2.40
2019-02-19T05:48:55.982Z,-2.40
2019-02-19T05:51:24.811Z,-2.40
2019-02-19T05:53:53.998Z,-2.40
2019-02-19T05:56:22.853Z,-2.40
2019-02-19T05:58:51.712Z,-2.40
2019-02-19T06:01:20.791Z,-2.40
2019-02-19T06:03:49.666Z,-2.40
2019-02-19T06:06:19.545Z,-2.50
2019-02-19T06:08:48.614Z,-2.50
2019-02-19T06:11:20.533Z,-2.50
2019-02-19T06:13:49.321Z,-2.50
2019-02-19T06:16:18.109Z,-2.40
2019-02-19T06:18:47.189Z,-2.30
2019-02-19T06:21:16.227Z,-2.20
2019-02-19T06:23:45.022Z,-2.10
2019-02-19T06:26:14.133Z,-2.10
2019-02-19T06:28:43.001Z,-2.10
2019-02-19T06:31:12.063Z,-2.00
2019-02-19T06:33:40.849Z,-1.90
2019-02-19T06:36:09.661Z,-1.90
2019-02-19T06:38:38.458Z,-1.80
2019-02-19T06:41:07.249Z,-1.80
2019-02-19T06:43:36.108Z,-1.70
2019-02-19T06:46:04.991Z,-1.60
2019-02-19T06:48:33.789Z,-1.40
2019-02-19T06:51:02.630Z,-1.20
2019-02-19T06:53:31.441Z,-1.10
2019-02-19T06:56:00.232Z,-0.90
2019-02-19T06:58:29.369Z,-0.80
2019-02-19T07:00:58.270Z,-0.60
2019-02-19T07:03:46.796Z,-0.50
2019-02-19T07:06:15.903Z,-0.50
2019-02-19T07:08:44.697Z,-0.40
2019-02-19T07:11:14.410Z,-0.40
2019-02-19T07:13:43.461Z,-0.40
2019-02-19T07:16:12.264Z,-0.30
2019-02-19T07:18:41.138Z,-0.30
2019-02-19T07:21:10.243Z,-0.20
2019-02-19T07:23:39.351Z,-0.10
2019-02-19T07:26:08.225Z,-0.10
2019-02-19T07:28:37.018Z,0.00
2019-02-19T07:31:06.059Z,0.10
2019-02-19T07:33:34.937Z,0.10
2019-02-19T07:36:04.267Z,0.30
2019-02-19T07:38:33.717Z,0.40
2019-02-19T07:41:02.758Z,0.60
2019-02-19T07:43:31.874Z,0.70
2019-02-19T07:46:00.711Z,0.90
2019-02-19T07:48:29.468Z,1.00
2019-02-19T07:50:58.505Z,1.20
2019-02-19T07:53:27.837Z,1.40
2019-02-19T07:55:56.637Z,1.60
2019-02-19T07:58:25.524Z,1.80
2019-02-19T08:00:54.612Z,2.00
2019-02-19T08:03:23.714Z,2.20
2019-02-19T08:05:52.805Z,2.40
2019-02-19T08:08:21.625Z,2.60
2019-02-19T08:10:50.415Z,2.80
2019-02-19T08:13:19.205Z,2.90
2019-02-19T08:15:48.027Z,3.20
2019-02-19T08:18:16.966Z,3.30
2019-02-19T08:20:46.422Z,3.60
2019-02-19T08:23:15.210Z,3.70
2019-02-19T08:25:44.313Z,4.00
2019-02-19T08:28:13.575Z,4.20
2019-02-19T08:30:42.402Z,4.50
2019-02-19T08:33:11.223Z,4.70
2019-02-19T08:35:40.121Z,5.00
2019-02-19T08:38:08.895Z,5.30
2019-02-19T08:40:37.685Z,5.60
2019-02-19T08:43:06.817Z,6.00
2019-02-19T08:45:35.719Z,6.20
2019-02-19T08:48:04.584Z,6.40
2019-02-19T08:50:33.371Z,6.70
2019-02-19T08:53:02.192Z,6.90
2019-02-19T08:55:31.413Z,7.10
2019-02-19T08:58:00.806Z,7.40
2019-02-19T09:00:30.041Z,7.60
2019-02-19T09:02:59.093Z,7.80
2019-02-19T09:05:28.150Z,8.00
2019-02-19T09:07:56.977Z,8.10
2019-02-19T09:10:26.027Z,8.20
2019-02-19T09:12:55.097Z,8.20
2019-02-19T09:15:23.918Z,8.40
2019-02-19T09:17:52.825Z,8.50
2019-02-19T09:20:21.605Z,8.60
2019-02-19T09:22:50.405Z,8.60
2019-02-19T09:25:19.241Z,8.70
2019-02-19T09:27:48.311Z,8.70
2019-02-19T09:30:17.406Z,8.70
2019-02-19T09:32:46.433Z,8.70
2019-02-19T09:35:15.295Z,8.60
2019-02-19T09:37:44.396Z,8.50
2019-02-19T09:40:13.534Z,8.60
2019-02-19T09:42:42.346Z,8.80
2019-02-19T09:45:11.374Z,9.40
2019-02-19T09:47:40.181Z,10.00
2019-02-19T09:50:09.405Z,10.60
2019-02-19T09:52:38.206Z,11.10
2019-02-19T09:55:07.206Z,11.50
2019-02-19T09:57:36.498Z,12.10
2019-02-19T10:00:07.282Z,12.60
2019-02-19T10:02:36.089Z,13.10
2019-02-19T10:05:05.718Z,13.50
2019-02-19T10:07:34.947Z,13.60
2019-02-19T10:10:03.913Z,13.60
2019-02-19T10:12:33.030Z,13.50
2019-02-19T10:15:02.149Z,13.40
2019-02-19T10:17:31.284Z,13.30
2019-02-19T10:20:00.278Z,13.20
2019-02-19T10:22:29.074Z,12.90
2019-02-19T10:24:58.180Z,12.70
2019-02-19T10:27:27.285Z,12.60
2019-02-19T10:29:56.090Z,12.70
2019-02-19T10:32:24.902Z,12.60
2019-02-19T10:34:54.251Z,12.60
2019-02-19T10:37:23.537Z,12.60
2019-02-19T10:39:52.825Z,12.60
2019-02-19T10:42:21.951Z,12.70
2019-02-19T10:44:50.802Z,12.70
2019-02-19T10:47:19.680Z,12.80
2019-02-19T10:49:48.711Z,12.80
2019-02-19T10:52:17.506Z,13.00
2019-02-19T10:54:46.322Z,13.30
2019-02-19T10:57:15.105Z,13.50
2019-02-19T10:59:44.508Z,13.80
2019-02-19T11:02:13.621Z,14.10
2019-02-19T11:04:42.397Z,14.60
2019-02-19T11:07:11.197Z,15.00
2019-02-19T11:09:40.049Z,15.50
2019-02-19T11:12:08.836Z,16.00
2019-02-19T11:14:37.721Z,16.40
2019-02-19T11:17:06.490Z,16.60
2019-02-19T11:19:35.341Z,16.70
2019-02-19T11:22:04.154Z,17.00
2019-02-19T11:24:33.059Z,17.20
2019-02-19T11:27:01.928Z,17.40
2019-02-19T11:29:30.724Z,17.50
2019-02-19T11:31:59.549Z,17.70
2019-02-19T11:34:28.525Z,17.90
2019-02-19T11:36:57.303Z,18.20
2019-02-19T11:39:26.524Z,18.30
2019-02-19T11:41:55.610Z,18.20
2019-02-19T11:44:24.394Z,18.00
2019-02-19T11:46:53.211Z,17.90
2019-02-19T11:49:22.082Z,18.00
2019-02-19T11:51:51.069Z,18.20
2019-02-19T11:54:19.862Z,18.20
2019-02-19T11:56:48.726Z,18.10
2019-02-19T11:59:17.676Z,17.80
2019-02-19T12:01:46.897Z,17.90
2019-02-19T12:04:15.954Z,17.70
2019-02-19T12:06:44.753Z,17.50
2019-02-19T12:09:13.625Z,17.50
2019-02-19T12:11:42.424Z,17.80
2019-02-19T12:14:11.473Z,18.00
2019-02-19T12:16:40.261Z,17.70
2019-02-19T12:19:09.403Z,17.20
2019-02-19T12:21:38.374Z,16.80
2019-02-19T12:24:07.240Z,16.50
2019-02-19T12:26:36.025Z,16.40
2019-02-19T12:29:04.883Z,16.90
2019-02-19T12:31:33.927Z,17.50
2019-02-19T12:34:02.686Z,17.90
2019-02-19T12:36:31.632Z,18.20
2019-02-19T12:39:00.470Z,18.60
2019-02-19T12:41:29.338Z,18.80
2019-02-19T12:43:58.217Z,18.80
2019-02-19T12:46:27.065Z,18.30
2019-02-19T12:48:56.308Z,17.60
2019-02-19T12:51:26.741Z,17.00
2019-02-19T12:53:55.729Z,16.60
2019-02-19T12:56:24.502Z,16.40
2019-02-19T12:58:53.312Z,16.20
2019-02-19T13:01:22.426Z,15.90
2019-02-19T13:03:51.606Z,15.80
2019-02-19T13:06:20.776Z,15.50
2019-02-19T13:08:49.865Z,15.30
2019-02-19T13:11:19.093Z,15.10
2019-02-19T13:13:48.167Z,15.00
2019-02-19T13:16:17.212Z,14.90
2019-02-19T13:18:46.075Z,14.90
2019-02-19T13:21:15.233Z,14.70
2019-02-19T13:23:44.121Z,14.50
2019-02-19T13:26:13.244Z,14.40
2019-02-19T13:28:42.454Z,14.10
2019-02-19T13:31:11.237Z,13.90
2019-02-19T13:33:40.044Z,13.70
2019-02-19T13:36:09.857Z,13.60
2019-02-19T13:38:38.665Z,13.40
2019-02-19T13:41:07.488Z,13.20
2019-02-19T13:43:36.341Z,13.00
2019-02-19T13:46:05.234Z,12.90
2019-02-19T13:48:34.350Z,12.80
2019-02-19T13:51:03.411Z,12.80
2019-02-19T13:53:51.387Z,12.70
2019-02-19T13:56:20.258Z,12.70
2019-02-19T13:58:50.157Z,12.60
2019-02-19T14:01:19.381Z,12.70
2019-02-19T14:03:48.452Z,12.70
2019-02-19T14:06:17.333Z,12.70
2019-02-19T14:08:46.144Z,12.70
2019-02-19T14:11:14.945Z,12.70
2019-02-19T14:13:50.198Z,12.70
2019-02-19T14:16:23.400Z,12.70
2019-02-19T14:18:57.161Z,12.60
2019-02-19T14:21:45.029Z,12.50
2019-02-19T14:24:32.353Z,12.30
2019-02-19T14:27:11.616Z,12.20
2019-02-19T14:29:58.393Z,12.10
2019-02-19T14:32:46.273Z,12.00
2019-02-19T14:35:34.424Z,11.90
2019-02-19T14:38:31.801Z,11.80
2019-02-19T14:41:25.853Z,11.70
2019-02-19T14:44:12.432Z,11.60
2019-02-19T14:46:51.140Z,11.60
2019-02-19T14:49:37.813Z,11.50
2019-02-19T14:52:24.930Z,11.50
2019-02-19T14:55:22.046Z,11.50
2019-02-19T14:58:05.475Z,11.50
2019-02-19T15:00:53.348Z,11.50
2019-02-19T15:03:46.064Z,11.50
2019-02-19T15:06:34.760Z,11.50
2019-02-19T15:09:31.561Z,11.60
2019-02-19T15:12:10.226Z,11.60
2019-02-19T15:14:58.886Z,11.70
2019-02-19T15:17:56.106Z,11.70
2019-02-19T15:20:40.692Z,11.70
2019-02-19T15:23:26.244Z,11.70
2019-02-19T15:26:05.217Z,11.60
2019-02-19T15:28:51.678Z,11.60
2019-02-19T15:31:28.457Z,11.70
2019-02-19T15:34:22.840Z,11.70
2019-02-19T15:37:10.783Z,11.70
2019-02-19T15:40:05.288Z,11.70
2019-02-19T15:42:45.989Z,11.70
2019-02-19T15:45:40.040Z,11.50
2019-02-19T15:48:30.379Z,11.30
2019-02-19T15:51:11.348Z,11.20
2019-02-19T15:53:51.654Z,11.00
2019-02-19T15:56:38.845Z,11.00
2019-02-19T15:59:27.240Z,10.90
2019-02-19T16:02:10.262Z,10.80
2019-02-19T16:05:01.249Z,10.70
2019-02-19T16:07:42.774Z,10.60
2019-02-19T16:10:22.697Z,10.60
2019-02-19T16:13:09.645Z,10.60
2019-02-19T16:15:56.600Z,10.40
2019-02-19T16:18:37.137Z,10.40
2019-02-19T16:21:18.270Z,10.20
2019-02-19T16:24:04.904Z,10.20
2019-02-19T16:26:41.003Z,10.00
2019-02-19T16:29:44.008Z,10.00
2019-02-19T16:32:21.829Z,9.90
2019-02-19T16:35:03.351Z,9.80
2019-02-19T16:37:45.804Z,9.80
2019-02-19T16:40:32.698Z,9.70
2019-02-19T16:43:09.235Z,9.70
2019-02-19T16:45:57.213Z,9.60
2019-02-19T16:48:54.460Z,9.60
2019-02-19T16:51:35.793Z,9.50
2019-02-19T16:54:12.578Z,9.40
2019-02-19T16:56:54.202Z,9.30
2019-02-19T16:59:45.328Z,9.30
2019-02-19T17:02:39.382Z,9.20
2019-02-19T17:05:39.639Z,9.20
2019-02-19T17:08:23.306Z,9.20
2019-02-19T17:10:59.020Z,9.10
2019-02-19T17:13:45.423Z,9.10
2019-02-19T17:16:32.095Z,9.00
2019-02-19T17:19:25.379Z,9.00
2019-02-19T17:22:31.802Z,8.90
2019-02-19T17:25:14.938Z,8.90
2019-02-19T17:28:06.018Z,8.90
2019-02-19T17:30:41.649Z,8.90
2019-02-19T17:33:28.213Z,8.80
2019-02-19T17:36:11.650Z,8.80
2019-02-19T17:39:02.669Z,8.70
2019-02-19T17:41:53.489Z,8.70
2019-02-19T17:44:53.838Z,8.70
2019-02-19T17:47:34.001Z,8.60
2019-02-19T17:50:38.704Z,8.60
2019-02-19T17:53:20.700Z,8.50
2019-02-19T17:56:07.286Z,8.50
2019-02-19T17:58:57.933Z,8.50
2019-02-19T18:01:48.786Z,8.50
2019-02-19T18:04:22.887Z,8.40
2019-02-19T18:07:28.993Z,8.40
2019-02-19T18:10:16.466Z,8.30
2019-02-19T18:12:56.891Z,8.20
2019-02-19T18:15:41.709Z,8.20
2019-02-19T18:18:32.820Z,8.20
2019-02-19T18:21:01.965Z,8.10
2019-02-19T18:23:31.746Z,8.10
2019-02-19T18:26:01.149Z,8.10
2019-02-19T18:28:30.389Z,8.00
2019-02-19T18:30:59.418Z,8.00
2019-02-19T18:33:28.482Z,8.00
2019-02-19T18:35:57.263Z,8.00
2019-02-19T18:38:26.155Z,8.00
2019-02-19T18:40:55.392Z,8.10
2019-02-19T18:43:24.730Z,8.10
2019-02-19T18:45:53.884Z,8.20
2019-02-19T18:48:22.664Z,8.10
2019-02-19T18:50:58.050Z,8.10
2019-02-19T18:53:22.915Z,8.00
2019-02-19T18:55:51.821Z,8.00
2019-02-19T18:58:20.616Z,7.90
2019-02-19T19:00:49.709Z,7.90
2019-02-19T19:03:18.744Z,7.80
2019-02-19T19:05:47.793Z,7.80
2019-02-19T19:08:16.569Z,7.70
2019-02-19T19:10:45.554Z,7.60
2019-02-19T19:13:14.424Z,7.50
2019-02-19T19:15:43.240Z,7.40
2019-02-19T19:18:12.362Z,7.30
2019-02-19T19:20:41.161Z,7.20
2019-02-19T19:23:10.126Z,7.10
2019-02-19T19:25:39.325Z,7.00
2019-02-19T19:28:08.176Z,6.90
2019-02-19T19:30:37.239Z,6.80
2019-02-19T19:33:06.105Z,6.60
2019-02-19T19:35:34.981Z,6.50
2019-02-19T19:38:04.135Z,6.40
2019-02-19T19:40:33.623Z,6.30
2019-02-19T19:43:02.525Z,6.20
2019-02-19T19:45:31.634Z,6.20
2019-02-19T19:48:00.485Z,6.10
2019-02-19T19:50:29.654Z,6.00
2019-02-19T19:52:58.795Z,5.90
2019-02-19T19:55:27.713Z,5.90
2019-02-19T19:57:56.550Z,5.90
2019-02-19T20:00:25.852Z,5.80
2019-02-19T20:02:54.865Z,5.90
2019-02-19T20:05:23.748Z,5.90
2019-02-19T20:07:52.886Z,5.90
2019-02-19T20:10:21.978Z,5.80
2019-02-19T20:12:50.975Z,5.70
2019-02-19T20:15:20.209Z,5.70
2019-02-19T20:17:49.073Z,5.60
2019-02-19T20:20:18.215Z,5.50
2019-02-19T20:22:47.224Z,5.40
2019-02-19T20:25:16.203Z,5.30
2019-02-19T20:27:45.725Z,5.30
2019-02-19T20:30:14.855Z,5.30
2019-02-19T20:32:43.729Z,5.30
2019-02-19T20:35:13.081Z,5.20
2019-02-19T20:37:42.039Z,5.10
2019-02-19T20:40:11.069Z,5.10
2019-02-19T20:42:40.163Z,5.00
2019-02-19T20:45:09.217Z,5.00
2019-02-19T20:47:38.264Z,4.90
2019-02-19T20:50:08.085Z,4.80
2019-02-19T20:52:37.147Z,4.70
2019-02-19T20:55:06.537Z,4.70
2019-02-19T20:57:35.638Z,4.70
2019-02-19T21:00:05.049Z,4.70
2019-02-19T21:02:33.895Z,4.70
2019-02-19T21:05:02.767Z,4.50
2019-02-19T21:07:31.613Z,4.40
2019-02-19T21:10:00.467Z,4.30
2019-02-19T21:12:29.306Z,4.20
2019-02-19T21:14:58.085Z,4.00
2019-02-19T21:17:26.898Z,4.00
2019-02-19T21:19:55.677Z,3.90
2019-02-19T21:22:24.853Z,3.90
2019-02-19T21:24:53.639Z,3.90
2019-02-19T21:27:23.038Z,3.90
2019-02-19T21:29:52.314Z,3.90
2019-02-19T21:32:21.249Z,3.90
2019-02-19T21:34:50.259Z,3.90
2019-02-19T21:37:19.397Z,3.90
2019-02-19T21:39:48.697Z,3.80
2019-02-19T21:42:17.774Z,3.80
2019-02-19T21:44:46.566Z,3.80
2019-02-19T21:47:15.370Z,3.70
2019-02-19T21:49:44.400Z,3.70
2019-02-19T21:52:13.284Z,3.60
2019-02-19T21:54:42.085Z,3.60
2019-02-19T21:57:11.204Z,3.60
2019-02-19T21:59:40.277Z,3.60
2019-02-19T22:02:16.224Z,3.60
2019-02-19T22:04:39.942Z,3.60
2019-02-19T22:07:08.795Z,3.60
2019-02-19T22:09:38.016Z,3.60
2019-02-19T22:12:06.923Z,3.60
2019-02-19T22:14:37.560Z,3.60
2019-02-19T22:17:06.432Z,3.50
2019-02-19T22:19:35.505Z,3.40
2019-02-19T22:22:15.669Z,3.30
2019-02-19T22:24:44.557Z,3.20
2019-02-19T22:27:13.431Z,3.10
2019-02-19T22:29:42.572Z,3.10
2019-02-19T22:32:12.900Z,3.10
2019-02-19T22:34:41.928Z,3.00
2019-02-19T22:37:11.144Z,3.00
2019-02-19T22:39:40.201Z,2.90
2019-02-19T22:42:09.420Z,2.80
2019-02-19T22:44:38.532Z,2.80
2019-02-19T22:47:07.797Z,2.70
2019-02-19T22:49:36.818Z,2.60
2019-02-19T22:52:12.311Z,2.60
2019-02-19T22:54:44.112Z,2.50
2019-02-19T22:57:13.238Z,2.50
2019-02-19T22:59:42.281Z,2.40
2019-02-19T23:02:17.380Z,2.30
2019-02-19T23:04:46.185Z,2.30
2019-02-19T23:07:15.045Z,2.20
2019-02-19T23:09:44.073Z,2.10
2019-02-19T23:12:13.081Z,2.10
2019-02-19T23:14:42.171Z,2.00
2019-02-19T23:17:11.377Z,1.90
2019-02-19T23:19:40.360Z,1.90
2019-02-19T23:22:09.484Z,1.90
2019-02-19T23:24:41.523Z,1.90
2019-02-19T23:27:10.312Z,1.90
2019-02-19T23:29:39.591Z,1.90
2019-02-19T23:32:08.404Z,1.90
2019-02-19T23:34:37.385Z,1.90
2019-02-19T23:37:25.414Z,1.90
2019-02-19T23:39:54.195Z,1.80
2019-02-19T23:42:22.976Z,1.80
2019-02-19T23:44:51.773Z,1.70
2019-02-19T23:47:20.578Z,1.60
2019-02-19T23:49:49.482Z,1.60
2019-02-19T23:52:18.279Z,1.50
2019-02-19T23:54:47.298Z,1.50
2019-02-19T23:57:16.245Z,1.50
2019-02-19T23:59:45.121Z,1.50
